createdAt,value
2023-04-24T00:00:13.281Z,89.11
2023-04-24T00:02:41.449Z,89.59
2023-04-24T00:05:10.937Z,88.04
2023-04-24T00:07:38.689Z,88.46
2023-04-24T00:10:07.251Z,88.45
2023-04-24T00:12:35.297Z,87.89
2023-04-24T00:15:03.100Z,89.35
2023-04-24T00:17:31.507Z,90.25
2023-04-24T00:20:00.162Z,90.64
2023-04-24T00:22:30.009Z,90.31
2023-04-24T00:24:57.787Z,90.91
2023-04-24T00:27:25.753Z,91.84
2023-04-24T00:29:53.444Z,91.76
2023-04-24T00:32:21.233Z,93.04
2023-04-24T00:34:49.073Z,93.45
2023-04-24T00:37:17.177Z,92.41
2023-04-24T00:39:46.202Z,91.57
2023-04-24T00:42:14.064Z,91.91
2023-04-24T00:44:41.881Z,91.05
2023-04-24T00:47:09.707Z,90.67
2023-04-24T00:49:37.451Z,90.12
2023-04-24T00:52:08.445Z,90.46
2023-04-24T00:54:36.103Z,91.11
2023-04-24T00:57:05.977Z,91.11
2023-04-24T00:59:34.164Z,89.59
2023-04-24T01:02:01.950Z,88.78
2023-04-24T01:04:30.519Z,88.93
2023-04-24T01:06:58.959Z,87.90
2023-04-24T01:09:27.157Z,87.75
2023-04-24T01:11:54.984Z,87.76
2023-04-24T01:14:25.677Z,87.47
2023-04-24T01:16:53.210Z,87.38
2023-04-24T01:19:22.031Z,87.11
2023-04-24T01:21:52.823Z,87.38
2023-04-24T01:24:23.266Z,88.40
2023-04-24T01:26:50.915Z,88.16
2023-04-24T01:29:18.517Z,88.48
2023-04-24T01:31:46.613Z,88.18
2023-04-24T01:34:18.097Z,88.99
2023-04-24T01:36:47.822Z,89.70
2023-04-24T01:39:16.609Z,89.69
2023-04-24T01:41:45.590Z,90.31
2023-04-24T01:44:13.653Z,89.73
2023-04-24T01:46:41.439Z,89.91
2023-04-24T01:49:09.112Z,89.51
2023-04-24T01:51:36.894Z,89.07
2023-04-24T01:54:06.264Z,89.62
2023-04-24T01:56:35.888Z,90.44
2023-04-24T01:59:05.472Z,88.91
2023-04-24T02:01:37.909Z,89.47
2023-04-24T02:04:05.986Z,89.77
2023-04-24T02:06:33.871Z,89.94
2023-04-24T02:09:01.857Z,90.49
2023-04-24T02:11:30.488Z,90.20
2023-04-24T02:13:58.197Z,89.73
2023-04-24T02:16:28.338Z,89.64
2023-04-24T02:18:56.336Z,89.82
2023-04-24T02:21:23.917Z,89.03
2023-04-24T02:23:51.562Z,89.07
2023-04-24T02:26:19.504Z,89.50
2023-04-24T02:28:47.179Z,89.44
2023-04-24T02:31:14.953Z,89.57
2023-04-24T02:33:43.927Z,89.35
2023-04-24T02:36:12.712Z,89.96
2023-04-24T02:38:40.314Z,90.87
2023-04-24T02:41:08.320Z,92.27
2023-04-24T02:43:35.892Z,92.89
2023-04-24T02:46:06.328Z,93.87
2023-04-24T02:48:34.067Z,94.84
2023-04-24T02:51:03.381Z,96.14
2023-04-24T02:53:31.881Z,95.20
2023-04-24T02:55:59.752Z,95.09
2023-04-24T02:58:27.330Z,95.10
2023-04-24T03:00:56.248Z,95.93
2023-04-24T03:03:24.808Z,96.64
2023-04-24T03:05:52.701Z,96.66
2023-04-24T03:08:21.729Z,95.92
2023-04-24T03:10:49.345Z,95.18
2023-04-24T03:13:17.580Z,95.07
2023-04-24T03:15:45.950Z,95.25
2023-04-24T03:18:13.587Z,94.77
2023-04-24T03:20:41.333Z,95.17
2023-04-24T03:23:09.049Z,94.82
2023-04-24T03:25:38.009Z,95.25
2023-04-24T03:28:05.751Z,95.85
2023-04-24T03:30:33.368Z,95.69
2023-04-24T03:33:01.251Z,96.48
2023-04-24T03:35:28.960Z,96.70
2023-04-24T03:37:56.640Z,97.01
2023-04-24T03:40:24.342Z,97.57
2023-04-24T03:42:53.297Z,97.28
2023-04-24T03:45:21.141Z,97.35
2023-04-24T03:47:48.806Z,96.22
2023-04-24T03:50:16.550Z,95.74
2023-04-24T03:52:44.130Z,96.88
2023-04-24T03:55:14.318Z,97.13
2023-04-24T03:57:42.221Z,97.45
2023-04-24T04:00:12.862Z,97.80
2023-04-24T04:02:40.572Z,97.95
2023-04-24T04:05:09.008Z,98.29
2023-04-24T04:07:36.710Z,98.06
2023-04-24T04:10:04.737Z,98.56
2023-04-24T04:12:32.364Z,100.00
2023-04-24T04:15:00.208Z,100.00
2023-04-24T04:17:29.184Z,100.00
2023-04-24T04:19:58.386Z,99.28
2023-04-24T04:22:25.945Z,99.43
2023-04-24T04:24:53.909Z,98.97
2023-04-24T04:27:22.373Z,100.00
2023-04-24T04:29:49.960Z,100.00
2023-04-24T04:32:18.007Z,100.00
2023-04-24T04:34:47.339Z,99.30
2023-04-24T04:37:15.604Z,98.15
2023-04-24T04:39:43.458Z,97.99
2023-04-24T04:42:11.455Z,97.28
2023-04-24T04:44:40.800Z,96.79
2023-04-24T04:47:09.714Z,96.71
2023-04-24T04:49:37.944Z,98.50
2023-04-24T04:52:06.975Z,98.64
2023-04-24T04:54:34.717Z,99.03
2023-04-24T04:57:04.322Z,98.56
2023-04-24T04:59:32.014Z,97.48
2023-04-24T05:01:59.569Z,95.08
2023-04-24T05:04:27.708Z,92.74
2023-04-24T05:06:55.484Z,88.56
2023-04-24T05:09:24.781Z,78.84
2023-04-24T05:11:52.546Z,73.17
2023-04-24T05:14:20.387Z,72.25
2023-04-24T05:16:48.161Z,69.60
2023-04-24T05:19:15.880Z,66.13
2023-04-24T05:21:43.554Z,63.67
2023-04-24T05:24:11.160Z,61.48
2023-04-24T05:26:40.092Z,59.36
2023-04-24T05:29:07.992Z,60.32
2023-04-24T05:31:35.788Z,61.67
2023-04-24T05:34:03.529Z,60.58
2023-04-24T05:36:31.839Z,58.21
2023-04-24T05:38:59.571Z,56.83
2023-04-24T05:41:27.284Z,52.93
2023-04-24T05:43:56.321Z,50.44
2023-04-24T05:46:24.171Z,47.61
2023-04-24T05:48:51.982Z,46.33
2023-04-24T05:51:19.770Z,45.31
2023-04-24T05:53:47.330Z,43.69
2023-04-24T05:56:15.109Z,42.44
2023-04-24T05:58:42.730Z,43.04
2023-04-24T06:01:11.872Z,44.02
2023-04-24T06:03:40.350Z,43.05
2023-04-24T06:06:08.380Z,41.64
2023-04-24T06:08:36.226Z,39.28
2023-04-24T06:11:04.751Z,40.49
2023-04-24T06:13:32.545Z,40.42
2023-04-24T06:16:00.223Z,43.93
2023-04-24T06:18:29.342Z,46.82
2023-04-24T06:20:57.082Z,46.80
2023-04-24T06:23:41.105Z,47.61
2023-04-24T06:26:27.661Z,48.37
2023-04-24T06:29:01.728Z,48.79
2023-04-24T06:31:29.740Z,48.79
2023-04-24T06:34:00.977Z,47.79
2023-04-24T06:36:29.283Z,45.47
2023-04-24T06:38:59.849Z,43.05
2023-04-24T06:41:28.373Z,43.35
2023-04-24T06:44:02.101Z,42.51
2023-04-24T06:46:30.802Z,44.66
2023-04-24T06:49:03.719Z,44.87
2023-04-24T06:51:48.676Z,44.80
2023-04-24T06:54:16.596Z,46.00
2023-04-24T06:59:36.951Z,46.99
2023-04-24T07:02:08.661Z,47.61
2023-04-24T07:04:37.779Z,46.81
2023-04-24T07:07:06.733Z,46.92
2023-04-24T07:09:36.303Z,45.74
2023-04-24T07:12:04.068Z,44.42
2023-04-24T07:14:31.748Z,43.18
2023-04-24T07:16:59.718Z,42.95
2023-04-24T07:19:27.365Z,41.95
2023-04-24T07:21:56.851Z,41.09
2023-04-24T07:24:26.710Z,39.05
2023-04-24T07:26:55.518Z,39.51
2023-04-24T07:29:23.154Z,38.99
2023-04-24T07:31:50.956Z,39.47
2023-04-24T07:34:24.572Z,40.51
2023-04-24T07:36:52.467Z,41.10
2023-04-24T07:39:21.977Z,39.90
2023-04-24T07:41:49.612Z,39.64
2023-04-24T07:44:17.328Z,41.66
2023-04-24T07:46:45.234Z,43.00
2023-04-24T07:49:14.088Z,43.48
2023-04-24T07:51:43.144Z,44.22
2023-04-24T07:54:12.759Z,42.77
2023-04-24T07:56:43.988Z,40.55
2023-04-24T07:59:12.824Z,40.24
2023-04-24T08:01:40.557Z,42.11
2023-04-24T08:04:08.844Z,43.36
2023-04-24T08:06:36.980Z,45.42
2023-04-24T08:09:05.377Z,47.96
2023-04-24T08:11:34.781Z,50.73
2023-04-24T08:14:03.811Z,51.24
2023-04-24T08:16:31.586Z,50.82
2023-04-24T08:18:59.560Z,48.24
2023-04-24T08:21:28.168Z,48.55
2023-04-24T08:23:55.858Z,45.53
2023-04-24T08:26:23.527Z,43.13
2023-04-24T08:28:51.566Z,42.37
2023-04-24T08:31:21.568Z,42.71
2023-04-24T08:33:49.621Z,42.76
2023-04-24T08:36:17.263Z,39.91
2023-04-24T08:38:47.333Z,40.52
2023-04-24T08:41:16.834Z,41.19
2023-04-24T08:43:44.844Z,41.66
2023-04-24T08:46:14.814Z,43.73
2023-04-24T08:48:44.352Z,44.20
2023-04-24T08:51:12.343Z,45.67
2023-04-24T08:53:40.286Z,46.59
2023-04-24T08:56:08.759Z,47.56
2023-04-24T08:58:37.690Z,49.22
2023-04-24T09:01:06.643Z,49.92
2023-04-24T09:03:35.422Z,50.95
2023-04-24T09:06:04.858Z,52.50
2023-04-24T09:08:33.113Z,53.02
2023-04-24T09:11:03.341Z,53.75
2023-04-24T09:13:32.127Z,54.44
2023-04-24T09:16:01.284Z,55.20
2023-04-24T09:18:29.169Z,56.37
2023-04-24T09:21:01.159Z,57.47
2023-04-24T09:23:31.434Z,56.88
2023-04-24T09:26:01.031Z,57.38
2023-04-24T09:28:34.216Z,57.18
2023-04-24T09:31:12.508Z,55.89
2023-04-24T09:33:40.286Z,55.42
2023-04-24T09:36:08.177Z,55.40
2023-04-24T09:38:38.620Z,55.54
2023-04-24T09:41:07.890Z,56.07
2023-04-24T09:43:36.445Z,57.17
2023-04-24T09:46:08.360Z,57.11
2023-04-24T09:48:37.268Z,57.85
2023-04-24T09:51:07.953Z,58.31
2023-04-24T09:53:37.033Z,57.99
2023-04-24T09:56:08.781Z,59.23
2023-04-24T09:58:37.042Z,57.98
2023-04-24T10:01:05.501Z,58.36
2023-04-24T10:03:34.290Z,58.49
2023-04-24T10:06:04.439Z,58.67
2023-04-24T10:08:37.718Z,58.83
2023-04-24T10:11:05.748Z,58.74
2023-04-24T10:13:34.817Z,58.46
2023-04-24T10:16:03.032Z,58.34
2023-04-24T10:18:31.843Z,58.06
2023-04-24T10:21:00.292Z,56.93
2023-04-24T10:23:28.061Z,58.22
2023-04-24T10:25:57.804Z,58.34
2023-04-24T10:28:29.035Z,59.33
2023-04-24T10:30:57.431Z,60.22
2023-04-24T10:33:26.124Z,62.09
2023-04-24T10:35:54.689Z,63.71
2023-04-24T10:38:26.898Z,65.25
2023-04-24T10:41:08.534Z,66.07
2023-04-24T10:43:36.252Z,69.38
2023-04-24T10:46:05.793Z,69.18
2023-04-24T10:48:34.356Z,70.31
2023-04-24T10:51:01.969Z,69.40
2023-04-24T10:53:31.310Z,68.83
2023-04-24T10:56:07.350Z,69.57
2023-04-24T10:58:41.174Z,71.90
2023-04-24T11:01:09.280Z,72.75
2023-04-24T11:03:38.481Z,71.87
2023-04-24T11:06:07.711Z,70.94
2023-04-24T11:08:39.981Z,69.94
2023-04-24T11:11:13.607Z,67.98
2023-04-24T11:14:03.892Z,63.71
2023-04-24T11:16:34.725Z,61.33
2023-04-24T11:19:03.568Z,59.53
2023-04-24T11:21:34.354Z,59.40
2023-04-24T11:24:29.883Z,58.09
2023-04-24T11:27:02.522Z,56.96
2023-04-24T11:30:01.893Z,56.16
2023-04-24T11:32:31.367Z,56.74
2023-04-24T11:35:00.394Z,55.62
2023-04-24T11:37:29.792Z,55.09
2023-04-24T11:39:59.471Z,56.88
2023-04-24T11:42:30.463Z,55.96
2023-04-24T11:44:58.354Z,55.97
2023-04-24T11:47:36.898Z,54.91
2023-04-24T11:50:06.780Z,53.68
2023-04-24T11:52:38.541Z,51.51
2023-04-24T11:55:08.732Z,50.44
2023-04-24T11:57:37.874Z,51.55
2023-04-24T12:00:07.782Z,50.79
2023-04-24T12:02:38.211Z,51.46
2023-04-24T12:05:08.921Z,51.30
2023-04-24T12:07:43.691Z,51.35
2023-04-24T12:10:12.054Z,52.75
2023-04-24T12:12:40.922Z,54.37
2023-04-24T12:15:10.313Z,57.95
2023-04-24T12:17:38.828Z,59.62
2023-04-24T12:20:09.640Z,59.42
2023-04-24T12:22:48.231Z,59.68
2023-04-24T12:25:19.074Z,61.70
2023-04-24T12:27:48.974Z,66.59
2023-04-24T12:30:18.479Z,68.12
2023-04-24T12:32:49.267Z,70.30
2023-04-24T12:35:21.867Z,68.77
2023-04-24T12:37:49.761Z,68.54
2023-04-24T12:40:18.839Z,64.85
2023-04-24T12:42:49.666Z,62.62
2023-04-24T12:45:18.342Z,63.03
2023-04-24T12:47:47.404Z,60.92
2023-04-24T12:50:16.455Z,59.31
2023-04-24T12:52:45.221Z,59.18
2023-04-24T12:55:13.269Z,58.98
2023-04-24T12:57:41.888Z,60.48
2023-04-24T13:00:12.117Z,59.06
2023-04-24T13:02:40.360Z,58.72
2023-04-24T13:05:08.627Z,57.08
2023-04-24T13:07:36.349Z,56.82
2023-04-24T13:10:04.121Z,56.01
2023-04-24T13:12:31.882Z,54.32
2023-04-24T13:14:59.794Z,53.53
2023-04-24T13:17:28.920Z,53.02
2023-04-24T13:19:57.375Z,52.41
2023-04-24T13:22:25.995Z,52.44
2023-04-24T13:24:53.841Z,53.08
2023-04-24T13:27:21.907Z,52.74
2023-04-24T13:29:49.648Z,54.02
2023-04-24T13:32:17.569Z,53.65
2023-04-24T13:34:46.760Z,52.96
2023-04-24T13:37:14.406Z,53.09
2023-04-24T13:39:43.088Z,52.45
2023-04-24T13:42:10.804Z,52.84
2023-04-24T13:44:38.679Z,53.40
2023-04-24T13:47:06.711Z,53.47
2023-04-24T13:49:34.617Z,54.21
2023-04-24T13:52:04.471Z,54.14
2023-04-24T13:54:32.059Z,54.34
2023-04-24T13:56:59.994Z,53.26
2023-04-24T13:59:27.889Z,53.61
2023-04-24T14:01:55.772Z,53.19
2023-04-24T14:04:23.745Z,53.22
2023-04-24T14:06:52.002Z,52.93
2023-04-24T14:09:20.938Z,53.32
2023-04-24T14:11:48.700Z,52.47
2023-04-24T14:14:17.185Z,51.50
2023-04-24T14:16:44.914Z,50.62
2023-04-24T14:19:12.502Z,50.26
2023-04-24T14:21:40.278Z,49.57
2023-04-24T14:24:17.925Z,48.67
2023-04-24T14:26:48.215Z,48.74
2023-04-24T14:29:16.217Z,49.09
2023-04-24T14:31:44.116Z,49.30
2023-04-24T14:34:12.870Z,49.88
2023-04-24T14:36:41.075Z,48.90
2023-04-24T14:39:12.131Z,49.34
2023-04-24T14:41:47.292Z,50.64
2023-04-24T14:44:16.576Z,50.48
2023-04-24T14:47:00.303Z,51.51
2023-04-24T14:49:28.474Z,52.61
2023-04-24T14:51:56.437Z,53.67
2023-04-24T14:54:24.841Z,55.31
2023-04-24T14:56:52.687Z,54.82
2023-04-24T14:59:21.735Z,55.66
2023-04-24T15:01:49.579Z,57.38
2023-04-24T15:04:17.894Z,56.00
2023-04-24T15:06:48.013Z,54.80
2023-04-24T15:09:15.776Z,54.34
2023-04-24T15:11:43.901Z,52.64
2023-04-24T15:14:12.332Z,53.11
2023-04-24T15:16:41.708Z,52.34
2023-04-24T15:19:10.174Z,52.30
2023-04-24T15:21:38.753Z,52.10
2023-04-24T15:24:07.025Z,51.63
2023-04-24T15:26:34.899Z,52.12
2023-04-24T15:29:02.694Z,51.90
2023-04-24T15:31:30.935Z,51.47
2023-04-24T15:34:00.011Z,51.17
2023-04-24T15:36:29.488Z,51.11
2023-04-24T15:38:57.044Z,50.82
2023-04-24T15:41:24.755Z,50.59
2023-04-24T15:43:52.469Z,50.85
2023-04-24T15:46:20.100Z,52.88
2023-04-24T15:48:47.790Z,51.18
2023-04-24T15:51:16.886Z,51.29
2023-04-24T15:53:44.549Z,51.20
2023-04-24T15:56:12.260Z,51.59
2023-04-24T15:58:39.998Z,51.45
2023-04-24T16:01:07.821Z,52.24
2023-04-24T16:03:36.052Z,51.97
2023-04-24T16:06:04.127Z,52.15
2023-04-24T16:08:33.036Z,52.06
2023-04-24T16:11:00.660Z,52.89
2023-04-24T16:13:29.049Z,53.04
2023-04-24T16:15:56.794Z,52.06
2023-04-24T16:18:24.544Z,52.42
2023-04-24T16:20:52.311Z,51.87
2023-04-24T16:23:19.886Z,52.57
2023-04-24T16:25:48.906Z,52.78
2023-04-24T16:28:17.004Z,52.88
2023-04-24T16:30:44.806Z,52.93
2023-04-24T16:33:12.477Z,52.22
2023-04-24T16:35:47.770Z,52.28
2023-04-24T16:38:19.392Z,52.39
2023-04-24T16:41:11.221Z,52.26
2023-04-24T16:43:39.261Z,52.73
2023-04-24T16:46:11.129Z,53.25
2023-04-24T16:48:40.064Z,52.76
2023-04-24T16:51:07.805Z,52.69
2023-04-24T16:53:36.008Z,52.22
2023-04-24T16:56:05.279Z,52.34
2023-04-24T16:58:33.061Z,52.19
2023-04-24T17:01:00.727Z,52.34
2023-04-24T17:03:28.671Z,53.36
2023-04-24T17:05:57.613Z,53.41
2023-04-24T17:08:25.628Z,52.67
2023-04-24T17:10:54.003Z,52.90
2023-04-24T17:13:22.924Z,53.31
2023-04-24T17:15:50.718Z,53.63
2023-04-24T17:18:18.759Z,53.24
2023-04-24T17:20:46.347Z,53.36
2023-04-24T17:23:16.743Z,52.54
2023-04-24T17:25:44.823Z,53.47
2023-04-24T17:28:21.526Z,53.25
2023-04-24T17:30:50.841Z,53.76
2023-04-24T17:33:18.608Z,53.42
2023-04-24T17:35:47.997Z,54.14
2023-04-24T17:38:16.131Z,54.28
2023-04-24T17:40:44.626Z,54.21
2023-04-24T17:43:12.542Z,54.50
2023-04-24T17:45:40.639Z,54.92
2023-04-24T17:48:09.726Z,54.82
2023-04-24T17:50:37.500Z,55.58
2023-04-24T17:53:05.265Z,55.37
2023-04-24T17:55:34.353Z,55.53
2023-04-24T17:58:03.009Z,55.56
2023-04-24T18:00:31.542Z,56.82
2023-04-24T18:03:01.540Z,56.53
2023-04-24T18:05:34.911Z,56.02
2023-04-24T18:08:06.098Z,56.41
2023-04-24T18:10:36.360Z,56.57
2023-04-24T18:13:09.528Z,57.43
2023-04-24T18:15:42.531Z,59.67
2023-04-24T18:18:11.543Z,62.35
2023-04-24T18:20:40.718Z,63.20
2023-04-24T18:23:10.448Z,63.53
2023-04-24T18:25:41.156Z,63.90
2023-04-24T18:28:08.919Z,64.48
2023-04-24T18:30:36.884Z,65.68
2023-04-24T18:33:05.614Z,66.83
2023-04-24T18:35:34.954Z,67.87
2023-04-24T18:38:05.757Z,67.28
2023-04-24T18:40:35.296Z,68.21
2023-04-24T18:43:05.488Z,68.84
2023-04-24T18:45:33.544Z,68.99
2023-04-24T18:48:01.475Z,69.39
2023-04-24T18:50:31.769Z,69.58
2023-04-24T18:52:59.666Z,69.76
2023-04-24T18:55:28.786Z,70.39
2023-04-24T18:57:56.483Z,70.75
2023-04-24T19:00:24.161Z,70.74
2023-04-24T19:02:54.712Z,71.82
2023-04-24T19:05:22.430Z,72.25
2023-04-24T19:07:50.688Z,72.85
2023-04-24T19:10:18.496Z,72.94
2023-04-24T19:12:56.381Z,72.83
2023-04-24T19:15:24.581Z,73.27
2023-04-24T19:17:52.561Z,74.25
2023-04-24T19:20:20.768Z,75.80
2023-04-24T19:22:48.643Z,78.28
2023-04-24T19:25:16.851Z,79.81
2023-04-24T19:27:44.707Z,80.08
2023-04-24T19:30:14.398Z,81.29
2023-04-24T19:32:48.057Z,82.75
2023-04-24T19:35:19.045Z,85.83
2023-04-24T19:37:48.600Z,87.34
2023-04-24T19:40:16.463Z,88.78
2023-04-24T19:42:44.828Z,89.90
2023-04-24T19:45:14.371Z,90.86
2023-04-24T19:47:43.722Z,91.16
2023-04-24T19:50:11.854Z,91.79
2023-04-24T19:52:39.766Z,91.62
2023-04-24T19:55:09.115Z,91.48
2023-04-24T19:57:37.406Z,91.41
2023-04-24T20:00:08.082Z,90.68
2023-04-24T20:02:41.349Z,90.64
2023-04-24T20:05:10.823Z,90.71
2023-04-24T20:07:38.594Z,91.09
2023-04-24T20:10:08.398Z,91.88
2023-04-24T20:12:36.363Z,93.28
2023-04-24T20:15:04.794Z,93.59
2023-04-24T20:17:32.466Z,94.72
2023-04-24T20:20:01.508Z,96.25
2023-04-24T20:22:29.138Z,95.83
2023-04-24T20:24:56.869Z,95.04
2023-04-24T20:27:24.582Z,94.85
2023-04-24T20:29:52.258Z,94.92
2023-04-24T20:32:21.007Z,94.59
2023-04-24T20:34:48.730Z,94.03
2023-04-24T20:37:17.649Z,93.67
2023-04-24T20:39:46.236Z,94.67
2023-04-24T20:42:13.904Z,94.71
2023-04-24T20:44:41.524Z,93.89
2023-04-24T20:47:09.866Z,95.83
2023-04-24T20:49:37.586Z,95.95
2023-04-24T20:52:05.320Z,96.30
2023-04-24T20:54:34.347Z,95.92
2023-04-24T20:57:03.743Z,95.98
2023-04-24T20:59:31.619Z,94.22
2023-04-24T21:01:59.254Z,93.54
2023-04-24T21:04:26.898Z,93.49
2023-04-24T21:06:54.795Z,93.21
2023-04-24T21:09:22.469Z,93.16
2023-04-24T21:11:51.409Z,93.02
2023-04-24T21:14:19.018Z,93.52
2023-04-24T21:16:46.986Z,93.39
2023-04-24T21:19:14.613Z,94.84
2023-04-24T21:21:42.550Z,95.23
2023-04-24T21:24:10.273Z,95.44
2023-04-24T21:26:37.941Z,96.22
2023-04-24T21:29:09.715Z,96.90
2023-04-24T21:31:37.853Z,96.19
2023-04-24T21:34:05.842Z,97.67
2023-04-24T21:36:33.527Z,96.83
2023-04-24T21:39:01.304Z,97.37
2023-04-24T21:41:29.249Z,97.81
2023-04-24T21:43:57.083Z,99.15
2023-04-24T21:46:26.410Z,99.36
2023-04-24T21:48:54.146Z,99.74
2023-04-24T21:51:21.850Z,99.16
2023-04-24T21:53:49.962Z,98.01
2023-04-24T21:56:18.184Z,98.61
2023-04-24T21:58:46.858Z,99.54
2023-04-24T22:01:15.609Z,98.96
2023-04-24T22:03:44.810Z,99.19
2023-04-24T22:06:12.515Z,99.41
2023-04-24T22:08:40.129Z,98.14
2023-04-24T22:11:19.908Z,98.81
2023-04-24T22:13:54.135Z,99.98
2023-04-24T22:16:23.671Z,100.00
2023-04-24T22:18:55.164Z,99.98
2023-04-24T22:21:23.497Z,100.00
2023-04-24T22:23:51.561Z,100.00
2023-04-24T22:26:19.604Z,100.00
2023-04-24T22:28:48.310Z,100.00
2023-04-24T22:31:16.457Z,100.00
2023-04-24T22:33:47.329Z,100.00
2023-04-24T22:36:16.909Z,100.00
2023-04-24T22:38:44.599Z,100.00
2023-04-24T22:41:12.386Z,100.00
2023-04-24T22:43:40.233Z,100.00
2023-04-24T22:46:07.820Z,100.00
2023-04-24T22:48:36.135Z,100.00
2023-04-24T22:51:03.774Z,100.00
2023-04-24T22:53:32.817Z,100.00
2023-04-24T22:56:01.069Z,100.00
2023-04-24T22:58:29.417Z,100.00
2023-04-24T23:00:57.059Z,100.00
2023-04-24T23:03:25.217Z,100.00
2023-04-24T23:05:52.907Z,100.00
2023-04-24T23:08:20.444Z,100.00
2023-04-24T23:10:49.611Z,100.00
2023-04-24T23:13:17.376Z,100.00
2023-04-24T23:15:45.281Z,100.00
2023-04-24T23:18:12.866Z,100.00
2023-04-24T23:20:40.719Z,100.00
2023-04-24T23:23:08.280Z,100.00
2023-04-24T23:25:35.834Z,100.00
2023-04-24T23:28:05.090Z,100.00
2023-04-24T23:30:32.942Z,100.00
2023-04-24T23:33:00.560Z,100.00
2023-04-24T23:35:28.377Z,100.00
2023-04-24T23:37:56.627Z,100.00
2023-04-24T23:40:24.563Z,100.00
2023-04-24T23:43:03.635Z,100.00
2023-04-24T23:45:36.019Z,100.00
2023-04-24T23:48:04.600Z,100.00
2023-04-24T23:50:32.478Z,100.00
2023-04-24T23:53:00.191Z,100.00
2023-04-24T23:55:27.992Z,100.00
2023-04-24T23:57:55.592Z,100.00
